sensor_id;sensor_type;location;lat;lon;timestamp;P1;durP1;ratioP1;P2;durP2;ratioP2
55216;SDS011;41086;46.736;15.666;2023-08-24T00:01:55;21.70;;;12.68;;
55216;SDS011;41086;46.736;15.666;2023-08-24T00:06:49;16.30;;;12.48;;
55216;SDS011;41086;46.736;15.666;2023-08-24T00:11:42;14.77;;;12.73;;
55216;SDS011;41086;46.736;15.666;2023-08-24T00:14:09;22.02;;;12.73;;
55216;SDS011;41086;46.736;15.666;2023-08-24T00:16:36;22.20;;;16.40;;
55216;SDS011;41086;46.736;15.666;2023-08-24T00:19:03;24.35;;;16.00;;
55216;SDS011;41086;46.736;15.666;2023-08-24T00:21:30;26.60;;;16.75;;
55216;SDS011;41086;46.736;15.666;2023-08-24T00:26:26;20.98;;;13.10;;
55216;SDS011;41086;46.736;15.666;2023-08-24T00:31:19;17.45;;;12.48;;
55216;SDS011;41086;46.736;15.666;2023-08-24T00:33:47;18.15;;;11.20;;
55216;SDS011;41086;46.736;15.666;2023-08-24T00:36:17;20.30;;;13.57;;
55216;SDS011;41086;46.736;15.666;2023-08-24T00:38:48;24.38;;;15.38;;
55216;SDS011;41086;46.736;15.666;2023-08-24T00:41:17;20.73;;;11.93;;
55216;SDS011;41086;46.736;15.666;2023-08-24T00:46:11;26.13;;;14.20;;
55216;SDS011;41086;46.736;15.666;2023-08-24T00:48:39;19.58;;;14.88;;
55216;SDS011;41086;46.736;15.666;2023-08-24T00:51:06;21.63;;;15.05;;
55216;SDS011;41086;46.736;15.666;2023-08-24T00:56:00;17.45;;;12.10;;
55216;SDS011;41086;46.736;15.666;2023-08-24T00:58:27;23.15;;;13.00;;
55216;SDS011;41086;46.736;15.666;2023-08-24T01:00:57;28.45;;;13.32;;
55216;SDS011;41086;46.736;15.666;2023-08-24T01:03:24;24.58;;;13.95;;
55216;SDS011;41086;46.736;15.666;2023-08-24T01:05:51;21.35;;;14.25;;
55216;SDS011;41086;46.736;15.666;2023-08-24T01:08:19;28.92;;;14.20;;
55216;SDS011;41086;46.736;15.666;2023-08-24T01:10:57;22.85;;;14.13;;
55216;SDS011;41086;46.736;15.666;2023-08-24T01:13:31;24.60;;;15.38;;
55216;SDS011;41086;46.736;15.666;2023-08-24T01:16:18;19.65;;;13.10;;
55216;SDS011;41086;46.736;15.666;2023-08-24T01:18:48;21.73;;;14.75;;
55216;SDS011;41086;46.736;15.666;2023-08-24T01:21:16;22.02;;;12.90;;
55216;SDS011;41086;46.736;15.666;2023-08-24T01:24:02;22.20;;;14.38;;
55216;SDS011;41086;46.736;15.666;2023-08-24T01:26:36;25.88;;;14.70;;
55216;SDS011;41086;46.736;15.666;2023-08-24T01:29:04;26.13;;;15.07;;
55216;SDS011;41086;46.736;15.666;2023-08-24T01:31:32;25.85;;;15.15;;
55216;SDS011;41086;46.736;15.666;2023-08-24T01:36:26;26.83;;;14.75;;
55216;SDS011;41086;46.736;15.666;2023-08-24T01:41:26;28.13;;;12.80;;
55216;SDS011;41086;46.736;15.666;2023-08-24T01:43:57;26.52;;;14.13;;
55216;SDS011;41086;46.736;15.666;2023-08-24T01:46:28;17.45;;;11.55;;
55216;SDS011;41086;46.736;15.666;2023-08-24T01:48:57;17.98;;;12.23;;
55216;SDS011;41086;46.736;15.666;2023-08-24T01:51:25;28.75;;;13.20;;
55216;SDS011;41086;46.736;15.666;2023-08-24T01:53:53;25.27;;;12.70;;
55216;SDS011;41086;46.736;15.666;2023-08-24T01:56:20;19.48;;;11.75;;
55216;SDS011;41086;46.736;15.666;2023-08-24T02:01:13;23.85;;;12.85;;
55216;SDS011;41086;46.736;15.666;2023-08-24T02:03:42;28.85;;;14.70;;
55216;SDS011;41086;46.736;15.666;2023-08-24T02:06:09;22.92;;;13.50;;
55216;SDS011;41086;46.736;15.666;2023-08-24T02:08:37;19.65;;;12.32;;
55216;SDS011;41086;46.736;15.666;2023-08-24T02:11:03;20.00;;;13.25;;
55216;SDS011;41086;46.736;15.666;2023-08-24T02:13:31;24.05;;;12.93;;
55216;SDS011;41086;46.736;15.666;2023-08-24T02:16:05;23.77;;;11.93;;
55216;SDS011;41086;46.736;15.666;2023-08-24T02:18:34;20.30;;;12.68;;
55216;SDS011;41086;46.736;15.666;2023-08-24T02:21:09;17.90;;;13.32;;
55216;SDS011;41086;46.736;15.666;2023-08-24T02:23:39;19.08;;;12.57;;
55216;SDS011;41086;46.736;15.666;2023-08-24T02:26:06;23.25;;;12.32;;
55216;SDS011;41086;46.736;15.666;2023-08-24T02:28:35;17.75;;;12.63;;
55216;SDS011;41086;46.736;15.666;2023-08-24T02:31:03;21.65;;;13.32;;
55216;SDS011;41086;46.736;15.666;2023-08-24T02:33:31;20.85;;;12.88;;
55216;SDS011;41086;46.736;15.666;2023-08-24T02:35:58;24.05;;;15.55;;
55216;SDS011;41086;46.736;15.666;2023-08-24T02:41:05;32.47;;;12.20;;
55216;SDS011;41086;46.736;15.666;2023-08-24T02:43:33;20.77;;;12.65;;
55216;SDS011;41086;46.736;15.666;2023-08-24T02:46:01;18.55;;;12.27;;
55216;SDS011;41086;46.736;15.666;2023-08-24T02:48:31;17.35;;;12.52;;
55216;SDS011;41086;46.736;15.666;2023-08-24T02:51:01;19.92;;;12.57;;
55216;SDS011;41086;46.736;15.666;2023-08-24T02:53:29;20.27;;;13.43;;
55216;SDS011;41086;46.736;15.666;2023-08-24T02:58:23;25.58;;;12.63;;
55216;SDS011;41086;46.736;15.666;2023-08-24T03:03:17;16.30;;;11.98;;
55216;SDS011;41086;46.736;15.666;2023-08-24T03:05:53;19.33;;;13.63;;
55216;SDS011;41086;46.736;15.666;2023-08-24T03:08:28;17.50;;;12.77;;
55216;SDS011;41086;46.736;15.666;2023-08-24T03:10:56;19.48;;;13.65;;
55216;SDS011;41086;46.736;15.666;2023-08-24T03:13:23;20.48;;;13.25;;
55216;SDS011;41086;46.736;15.666;2023-08-24T03:15:52;21.50;;;12.77;;
55216;SDS011;41086;46.736;15.666;2023-08-24T03:18:21;25.48;;;12.85;;
55216;SDS011;41086;46.736;15.666;2023-08-24T03:20:48;20.85;;;11.80;;
55216;SDS011;41086;46.736;15.666;2023-08-24T03:23:15;19.42;;;11.32;;
55216;SDS011;41086;46.736;15.666;2023-08-24T03:25:43;17.77;;;10.93;;
55216;SDS011;41086;46.736;15.666;2023-08-24T03:28:10;17.00;;;12.02;;
55216;SDS011;41086;46.736;15.666;2023-08-24T03:30:38;21.30;;;12.68;;
55216;SDS011;41086;46.736;15.666;2023-08-24T03:33:13;37.05;;;16.98;;
55216;SDS011;41086;46.736;15.666;2023-08-24T03:35:40;24.42;;;13.85;;
55216;SDS011;41086;46.736;15.666;2023-08-24T03:38:07;25.05;;;14.52;;
55216;SDS011;41086;46.736;15.666;2023-08-24T03:40:34;24.98;;;14.07;;
55216;SDS011;41086;46.736;15.666;2023-08-24T03:43:01;24.42;;;13.30;;
55216;SDS011;41086;46.736;15.666;2023-08-24T03:45:29;23.02;;;13.32;;
55216;SDS011;41086;46.736;15.666;2023-08-24T03:47:56;23.67;;;14.43;;
55216;SDS011;41086;46.736;15.666;2023-08-24T03:50:25;19.63;;;13.80;;
55216;SDS011;41086;46.736;15.666;2023-08-24T03:52:52;20.77;;;13.13;;
55216;SDS011;41086;46.736;15.666;2023-08-24T03:55:21;26.02;;;14.38;;
55216;SDS011;41086;46.736;15.666;2023-08-24T04:00:15;20.90;;;12.70;;
55216;SDS011;41086;46.736;15.666;2023-08-24T04:02:44;17.13;;;14.13;;
55216;SDS011;41086;46.736;15.666;2023-08-24T04:05:22;26.88;;;14.88;;
55216;SDS011;41086;46.736;15.666;2023-08-24T04:07:50;24.42;;;14.80;;
55216;SDS011;41086;46.736;15.666;2023-08-24T04:10:17;21.42;;;11.63;;
55216;SDS011;41086;46.736;15.666;2023-08-24T04:12:44;23.95;;;15.00;;
55216;SDS011;41086;46.736;15.666;2023-08-24T04:15:11;27.55;;;15.05;;
55216;SDS011;41086;46.736;15.666;2023-08-24T04:17:39;23.65;;;13.57;;
55216;SDS011;41086;46.736;15.666;2023-08-24T04:20:10;17.38;;;13.70;;
55216;SDS011;41086;46.736;15.666;2023-08-24T04:22:37;18.05;;;12.70;;
55216;SDS011;41086;46.736;15.666;2023-08-24T04:25:04;23.58;;;11.77;;
55216;SDS011;41086;46.736;15.666;2023-08-24T04:27:32;18.77;;;12.70;;
55216;SDS011;41086;46.736;15.666;2023-08-24T04:29:59;21.55;;;13.02;;
55216;SDS011;41086;46.736;15.666;2023-08-24T04:32:27;21.63;;;12.40;;
55216;SDS011;41086;46.736;15.666;2023-08-24T04:34:54;18.70;;;12.63;;
55216;SDS011;41086;46.736;15.666;2023-08-24T04:37:21;18.33;;;12.27;;
55216;SDS011;41086;46.736;15.666;2023-08-24T04:42:14;23.85;;;13.93;;
55216;SDS011;41086;46.736;15.666;2023-08-24T04:44:41;18.67;;;13.18;;
55216;SDS011;41086;46.736;15.666;2023-08-24T04:49:35;21.48;;;12.18;;
55216;SDS011;41086;46.736;15.666;2023-08-24T04:52:02;26.20;;;12.43;;
55216;SDS011;41086;46.736;15.666;2023-08-24T04:56:56;23.23;;;14.95;;
55216;SDS011;41086;46.736;15.666;2023-08-24T04:59:22;19.05;;;13.13;;
55216;SDS011;41086;46.736;15.666;2023-08-24T05:04:16;21.80;;;13.80;;
55216;SDS011;41086;46.736;15.666;2023-08-24T05:06:43;23.33;;;14.75;;
55216;SDS011;41086;46.736;15.666;2023-08-24T05:11:36;18.95;;;13.73;;
55216;SDS011;41086;46.736;15.666;2023-08-24T05:14:04;24.67;;;13.75;;
55216;SDS011;41086;46.736;15.666;2023-08-24T05:16:31;18.60;;;12.52;;
55216;SDS011;41086;46.736;15.666;2023-08-24T05:21:24;17.40;;;13.50;;
55216;SDS011;41086;46.736;15.666;2023-08-24T05:23:51;16.88;;;12.88;;
55216;SDS011;41086;46.736;15.666;2023-08-24T05:28:49;22.67;;;13.27;;
55216;SDS011;41086;46.736;15.666;2023-08-24T05:31:16;17.25;;;13.63;;
55216;SDS011;41086;46.736;15.666;2023-08-24T05:33:47;21.17;;;14.63;;
55216;SDS011;41086;46.736;15.666;2023-08-24T05:36:13;19.33;;;15.38;;
55216;SDS011;41086;46.736;15.666;2023-08-24T05:38:40;22.02;;;14.15;;
55216;SDS011;41086;46.736;15.666;2023-08-24T05:41:29;20.70;;;12.63;;
55216;SDS011;41086;46.736;15.666;2023-08-24T05:43:55;16.25;;;13.15;;
55216;SDS011;41086;46.736;15.666;2023-08-24T05:46:23;19.40;;;13.43;;
55216;SDS011;41086;46.736;15.666;2023-08-24T05:48:50;18.95;;;13.93;;
55216;SDS011;41086;46.736;15.666;2023-08-24T05:51:18;18.98;;;13.35;;
55216;SDS011;41086;46.736;15.666;2023-08-24T05:53:44;16.80;;;13.02;;
55216;SDS011;41086;46.736;15.666;2023-08-24T05:58:38;17.52;;;12.05;;
55216;SDS011;41086;46.736;15.666;2023-08-24T06:01:05;18.08;;;12.48;;
55216;SDS011;41086;46.736;15.666;2023-08-24T06:06:02;14.32;;;10.27;;
55216;SDS011;41086;46.736;15.666;2023-08-24T06:08:30;14.18;;;10.68;;
55216;SDS011;41086;46.736;15.666;2023-08-24T06:10:57;17.08;;;11.77;;
55216;SDS011;41086;46.736;15.666;2023-08-24T06:13:24;19.92;;;12.15;;
55216;SDS011;41086;46.736;15.666;2023-08-24T06:15:52;15.48;;;11.90;;
55216;SDS011;41086;46.736;15.666;2023-08-24T06:18:20;16.27;;;10.85;;
55216;SDS011;41086;46.736;15.666;2023-08-24T06:20:47;14.05;;;10.55;;
55216;SDS011;41086;46.736;15.666;2023-08-24T06:23:17;15.77;;;10.57;;
55216;SDS011;41086;46.736;15.666;2023-08-24T06:25:44;13.02;;;10.10;;
55216;SDS011;41086;46.736;15.666;2023-08-24T06:28:12;10.93;;;9.45;;
55216;SDS011;41086;46.736;15.666;2023-08-24T06:30:40;16.92;;;9.98;;
55216;SDS011;41086;46.736;15.666;2023-08-24T06:33:09;12.00;;;8.93;;
55216;SDS011;41086;46.736;15.666;2023-08-24T06:35:37;13.63;;;9.32;;
55216;SDS011;41086;46.736;15.666;2023-08-24T06:38:04;12.25;;;8.57;;
55216;SDS011;41086;46.736;15.666;2023-08-24T06:40:32;17.98;;;10.10;;
55216;SDS011;41086;46.736;15.666;2023-08-24T06:42:58;15.23;;;10.80;;
55216;SDS011;41086;46.736;15.666;2023-08-24T06:45:29;15.52;;;10.98;;
55216;SDS011;41086;46.736;15.666;2023-08-24T06:47:57;14.85;;;11.15;;
55216;SDS011;41086;46.736;15.666;2023-08-24T06:50:28;12.32;;;9.43;;
55216;SDS011;41086;46.736;15.666;2023-08-24T06:52:55;14.90;;;9.65;;
55216;SDS011;41086;46.736;15.666;2023-08-24T06:55:22;13.48;;;8.70;;
55216;SDS011;41086;46.736;15.666;2023-08-24T06:57:49;11.27;;;9.13;;
55216;SDS011;41086;46.736;15.666;2023-08-24T07:00:19;12.93;;;8.80;;
55216;SDS011;41086;46.736;15.666;2023-08-24T07:02:52;13.95;;;8.52;;
55216;SDS011;41086;46.736;15.666;2023-08-24T07:05:19;11.73;;;8.43;;
55216;SDS011;41086;46.736;15.666;2023-08-24T07:07:46;16.70;;;9.07;;
55216;SDS011;41086;46.736;15.666;2023-08-24T07:10:14;11.32;;;8.10;;
55216;SDS011;41086;46.736;15.666;2023-08-24T07:12:41;10.50;;;8.43;;
55216;SDS011;41086;46.736;15.666;2023-08-24T07:15:08;11.45;;;8.68;;
55216;SDS011;41086;46.736;15.666;2023-08-24T07:17:42;21.20;;;10.88;;
55216;SDS011;41086;46.736;15.666;2023-08-24T07:20:09;14.27;;;10.32;;
55216;SDS011;41086;46.736;15.666;2023-08-24T07:22:38;15.80;;;8.15;;
55216;SDS011;41086;46.736;15.666;2023-08-24T07:25:05;11.45;;;9.07;;
55216;SDS011;41086;46.736;15.666;2023-08-24T07:27:33;10.50;;;8.68;;
55216;SDS011;41086;46.736;15.666;2023-08-24T07:30:01;15.07;;;10.07;;
55216;SDS011;41086;46.736;15.666;2023-08-24T07:32:51;12.90;;;9.27;;
55216;SDS011;41086;46.736;15.666;2023-08-24T07:35:19;13.73;;;9.68;;
55216;SDS011;41086;46.736;15.666;2023-08-24T07:37:49;16.15;;;10.07;;
55216;SDS011;41086;46.736;15.666;2023-08-24T07:40:17;15.85;;;10.40;;
55216;SDS011;41086;46.736;15.666;2023-08-24T07:42:45;17.40;;;9.05;;
55216;SDS011;41086;46.736;15.666;2023-08-24T07:45:13;17.50;;;10.18;;
55216;SDS011;41086;46.736;15.666;2023-08-24T07:47:40;16.13;;;10.27;;
55216;SDS011;41086;46.736;15.666;2023-08-24T07:50:08;13.00;;;9.70;;
55216;SDS011;41086;46.736;15.666;2023-08-24T07:52:36;12.90;;;10.35;;
55216;SDS011;41086;46.736;15.666;2023-08-24T07:55:04;13.48;;;8.95;;
55216;SDS011;41086;46.736;15.666;2023-08-24T07:57:36;17.08;;;9.48;;
55216;SDS011;41086;46.736;15.666;2023-08-24T08:00:04;15.38;;;9.85;;
55216;SDS011;41086;46.736;15.666;2023-08-24T08:02:37;17.42;;;8.23;;
55216;SDS011;41086;46.736;15.666;2023-08-24T08:05:04;17.50;;;8.38;;
55216;SDS011;41086;46.736;15.666;2023-08-24T08:07:39;35.90;;;9.82;;
55216;SDS011;41086;46.736;15.666;2023-08-24T08:10:06;18.55;;;8.85;;
55216;SDS011;41086;46.736;15.666;2023-08-24T08:12:33;15.57;;;8.10;;
55216;SDS011;41086;46.736;15.666;2023-08-24T08:15:01;15.63;;;8.60;;
55216;SDS011;41086;46.736;15.666;2023-08-24T08:17:28;18.08;;;7.80;;
55216;SDS011;41086;46.736;15.666;2023-08-24T08:19:57;11.98;;;7.65;;
55216;SDS011;41086;46.736;15.666;2023-08-24T08:22:24;27.85;;;8.55;;
55216;SDS011;41086;46.736;15.666;2023-08-24T08:24:51;12.48;;;7.57;;
55216;SDS011;41086;46.736;15.666;2023-08-24T08:27:21;19.75;;;8.52;;
55216;SDS011;41086;46.736;15.666;2023-08-24T08:29:50;10.00;;;7.75;;
55216;SDS011;41086;46.736;15.666;2023-08-24T08:32:17;14.68;;;9.20;;
55216;SDS011;41086;46.736;15.666;2023-08-24T08:34:44;11.02;;;8.18;;
55216;SDS011;41086;46.736;15.666;2023-08-24T08:37:10;14.15;;;8.80;;
55216;SDS011;41086;46.736;15.666;2023-08-24T08:39:37;70.47;;;10.30;;
55216;SDS011;41086;46.736;15.666;2023-08-24T08:42:04;18.15;;;8.30;;
55216;SDS011;41086;46.736;15.666;2023-08-24T08:44:31;12.80;;;7.50;;
55216;SDS011;41086;46.736;15.666;2023-08-24T08:46:59;15.45;;;8.45;;
55216;SDS011;41086;46.736;15.666;2023-08-24T08:49:29;12.70;;;8.57;;
55216;SDS011;41086;46.736;15.666;2023-08-24T08:51:56;14.40;;;8.55;;
55216;SDS011;41086;46.736;15.666;2023-08-24T08:54:23;12.52;;;8.50;;
55216;SDS011;41086;46.736;15.666;2023-08-24T08:56:50;9.55;;;7.72;;
55216;SDS011;41086;46.736;15.666;2023-08-24T08:59:17;10.63;;;7.53;;
55216;SDS011;41086;46.736;15.666;2023-08-24T09:01:44;12.07;;;8.10;;
55216;SDS011;41086;46.736;15.666;2023-08-24T09:04:14;12.98;;;8.32;;
55216;SDS011;41086;46.736;15.666;2023-08-24T09:06:41;12.15;;;8.13;;
55216;SDS011;41086;46.736;15.666;2023-08-24T09:09:08;10.88;;;7.97;;
55216;SDS011;41086;46.736;15.666;2023-08-24T09:11:36;10.57;;;7.78;;
55216;SDS011;41086;46.736;15.666;2023-08-24T09:14:03;15.38;;;7.50;;
55216;SDS011;41086;46.736;15.666;2023-08-24T09:16:30;11.95;;;7.72;;
55216;SDS011;41086;46.736;15.666;2023-08-24T09:18:59;12.93;;;8.73;;
55216;SDS011;41086;46.736;15.666;2023-08-24T09:21:26;10.48;;;8.00;;
55216;SDS011;41086;46.736;15.666;2023-08-24T09:23:56;9.45;;;7.18;;
55216;SDS011;41086;46.736;15.666;2023-08-24T09:26:29;10.45;;;7.93;;
55216;SDS011;41086;46.736;15.666;2023-08-24T09:29:00;10.65;;;7.68;;
55216;SDS011;41086;46.736;15.666;2023-08-24T09:31:38;11.10;;;7.63;;
55216;SDS011;41086;46.736;15.666;2023-08-24T09:34:06;9.13;;;7.22;;
55216;SDS011;41086;46.736;15.666;2023-08-24T09:36:33;11.65;;;8.40;;
55216;SDS011;41086;46.736;15.666;2023-08-24T09:39:00;11.77;;;8.05;;
55216;SDS011;41086;46.736;15.666;2023-08-24T09:41:40;13.48;;;8.40;;
55216;SDS011;41086;46.736;15.666;2023-08-24T09:44:08;11.45;;;8.05;;
55216;SDS011;41086;46.736;15.666;2023-08-24T09:46:35;15.55;;;7.70;;
55216;SDS011;41086;46.736;15.666;2023-08-24T09:49:05;9.55;;;8.30;;
55216;SDS011;41086;46.736;15.666;2023-08-24T09:51:35;14.30;;;7.78;;
55216;SDS011;41086;46.736;15.666;2023-08-24T09:54:07;11.25;;;7.93;;
55216;SDS011;41086;46.736;15.666;2023-08-24T09:56:36;12.27;;;7.88;;
55216;SDS011;41086;46.736;15.666;2023-08-24T09:59:11;18.08;;;8.02;;
55216;SDS011;41086;46.736;15.666;2023-08-24T10:01:49;13.00;;;8.60;;
55216;SDS011;41086;46.736;15.666;2023-08-24T10:04:27;13.77;;;8.50;;
55216;SDS011;41086;46.736;15.666;2023-08-24T10:06:57;10.95;;;7.40;;
55216;SDS011;41086;46.736;15.666;2023-08-24T10:12:24;10.25;;;8.50;;
55216;SDS011;41086;46.736;15.666;2023-08-24T10:17:33;11.32;;;8.30;;
55216;SDS011;41086;46.736;15.666;2023-08-24T10:20:02;9.98;;;7.78;;
55216;SDS011;41086;46.736;15.666;2023-08-24T10:22:33;13.75;;;9.18;;
55216;SDS011;41086;46.736;15.666;2023-08-24T10:25:01;11.73;;;7.78;;
55216;SDS011;41086;46.736;15.666;2023-08-24T10:27:29;11.40;;;7.50;;
55216;SDS011;41086;46.736;15.666;2023-08-24T10:29:56;15.43;;;8.23;;
55216;SDS011;41086;46.736;15.666;2023-08-24T10:32:25;29.17;;;9.85;;
55216;SDS011;41086;46.736;15.666;2023-08-24T10:34:53;9.75;;;7.47;;
55216;SDS011;41086;46.736;15.666;2023-08-24T10:37:26;8.70;;;7.22;;
55216;SDS011;41086;46.736;15.666;2023-08-24T10:39:54;11.10;;;8.07;;
55216;SDS011;41086;46.736;15.666;2023-08-24T10:42:21;15.77;;;7.63;;
55216;SDS011;41086;46.736;15.666;2023-08-24T10:44:48;16.88;;;8.73;;
55216;SDS011;41086;46.736;15.666;2023-08-24T10:47:18;8.52;;;6.97;;
55216;SDS011;41086;46.736;15.666;2023-08-24T10:52:23;10.50;;;8.13;;
55216;SDS011;41086;46.736;15.666;2023-08-24T10:54:51;13.80;;;8.40;;
55216;SDS011;41086;46.736;15.666;2023-08-24T10:57:20;12.07;;;8.35;;
55216;SDS011;41086;46.736;15.666;2023-08-24T10:59:57;15.00;;;8.07;;
55216;SDS011;41086;46.736;15.666;2023-08-24T11:05:38;10.57;;;8.02;;
55216;SDS011;41086;46.736;15.666;2023-08-24T11:08:04;10.70;;;7.75;;
55216;SDS011;41086;46.736;15.666;2023-08-24T11:15:43;9.23;;;7.88;;
55216;SDS011;41086;46.736;15.666;2023-08-24T11:20:52;12.82;;;8.25;;
55216;SDS011;41086;46.736;15.666;2023-08-24T11:23:21;11.13;;;8.23;;
55216;SDS011;41086;46.736;15.666;2023-08-24T11:25:51;10.30;;;9.10;;
55216;SDS011;41086;46.736;15.666;2023-08-24T11:28:26;10.90;;;8.15;;
55216;SDS011;41086;46.736;15.666;2023-08-24T11:30:55;9.98;;;7.30;;
55216;SDS011;41086;46.736;15.666;2023-08-24T11:33:27;10.32;;;8.05;;
55216;SDS011;41086;46.736;15.666;2023-08-24T11:36:00;11.68;;;8.35;;
55216;SDS011;41086;46.736;15.666;2023-08-24T11:38:36;9.30;;;7.68;;
55216;SDS011;41086;46.736;15.666;2023-08-24T11:41:14;9.50;;;7.00;;
55216;SDS011;41086;46.736;15.666;2023-08-24T11:43:44;8.82;;;7.68;;
55216;SDS011;41086;46.736;15.666;2023-08-24T11:46:17;10.05;;;7.80;;
55216;SDS011;41086;46.736;15.666;2023-08-24T11:48:45;12.77;;;8.10;;
55216;SDS011;41086;46.736;15.666;2023-08-24T11:51:12;8.77;;;7.28;;
55216;SDS011;41086;46.736;15.666;2023-08-24T11:53:44;11.75;;;8.05;;
55216;SDS011;41086;46.736;15.666;2023-08-24T11:56:12;9.43;;;8.05;;
55216;SDS011;41086;46.736;15.666;2023-08-24T11:58:41;15.30;;;7.70;;
55216;SDS011;41086;46.736;15.666;2023-08-24T12:01:09;11.85;;;8.07;;
55216;SDS011;41086;46.736;15.666;2023-08-24T12:03:38;9.43;;;8.35;;
55216;SDS011;41086;46.736;15.666;2023-08-24T12:06:13;10.50;;;8.38;;
55216;SDS011;41086;46.736;15.666;2023-08-24T12:08:42;25.30;;;19.43;;
55216;SDS011;41086;46.736;15.666;2023-08-24T12:11:16;10.68;;;8.10;;
55216;SDS011;41086;46.736;15.666;2023-08-24T12:13:45;11.43;;;7.78;;
55216;SDS011;41086;46.736;15.666;2023-08-24T12:16:14;10.77;;;8.85;;
55216;SDS011;41086;46.736;15.666;2023-08-24T12:18:46;10.30;;;7.65;;
55216;SDS011;41086;46.736;15.666;2023-08-24T12:21:23;9.90;;;8.77;;
55216;SDS011;41086;46.736;15.666;2023-08-24T12:24:03;11.25;;;7.43;;
55216;SDS011;41086;46.736;15.666;2023-08-24T12:26:35;9.77;;;7.65;;
55216;SDS011;41086;46.736;15.666;2023-08-24T12:29:03;10.05;;;7.68;;
55216;SDS011;41086;46.736;15.666;2023-08-24T12:31:35;11.25;;;8.15;;
55216;SDS011;41086;46.736;15.666;2023-08-24T12:34:04;11.32;;;7.65;;
55216;SDS011;41086;46.736;15.666;2023-08-24T12:36:33;9.52;;;7.93;;
55216;SDS011;41086;46.736;15.666;2023-08-24T12:39:03;11.90;;;8.52;;
55216;SDS011;41086;46.736;15.666;2023-08-24T12:41:31;10.57;;;8.25;;
55216;SDS011;41086;46.736;15.666;2023-08-24T12:43:59;13.45;;;7.95;;
55216;SDS011;41086;46.736;15.666;2023-08-24T12:46:32;9.07;;;7.57;;
55216;SDS011;41086;46.736;15.666;2023-08-24T12:48:59;11.52;;;8.13;;
55216;SDS011;41086;46.736;15.666;2023-08-24T12:51:26;9.32;;;7.35;;
55216;SDS011;41086;46.736;15.666;2023-08-24T12:53:53;9.35;;;7.78;;
55216;SDS011;41086;46.736;15.666;2023-08-24T12:56:20;11.38;;;7.25;;
55216;SDS011;41086;46.736;15.666;2023-08-24T12:58:54;9.30;;;7.70;;
55216;SDS011;41086;46.736;15.666;2023-08-24T13:01:21;10.70;;;7.88;;
55216;SDS011;41086;46.736;15.666;2023-08-24T13:03:48;10.82;;;6.95;;
55216;SDS011;41086;46.736;15.666;2023-08-24T13:06:15;17.40;;;9.25;;
55216;SDS011;41086;46.736;15.666;2023-08-24T13:08:45;10.02;;;7.70;;
55216;SDS011;41086;46.736;15.666;2023-08-24T13:11:12;9.43;;;7.47;;
55216;SDS011;41086;46.736;15.666;2023-08-24T13:13:38;10.98;;;7.80;;
55216;SDS011;41086;46.736;15.666;2023-08-24T13:16:05;12.77;;;8.23;;
55216;SDS011;41086;46.736;15.666;2023-08-24T13:18:32;10.32;;;7.43;;
55216;SDS011;41086;46.736;15.666;2023-08-24T13:20:59;8.55;;;6.80;;
55216;SDS011;41086;46.736;15.666;2023-08-24T13:23:26;11.40;;;7.85;;
55216;SDS011;41086;46.736;15.666;2023-08-24T13:25:56;8.32;;;6.90;;
55216;SDS011;41086;46.736;15.666;2023-08-24T13:28:24;7.30;;;6.60;;
55216;SDS011;41086;46.736;15.666;2023-08-24T13:30:51;9.43;;;6.80;;
55216;SDS011;41086;46.736;15.666;2023-08-24T13:33:18;10.65;;;6.85;;
55216;SDS011;41086;46.736;15.666;2023-08-24T13:35:46;9.60;;;7.07;;
55216;SDS011;41086;46.736;15.666;2023-08-24T13:38:13;8.50;;;6.47;;
55216;SDS011;41086;46.736;15.666;2023-08-24T13:40:39;10.15;;;7.55;;
55216;SDS011;41086;46.736;15.666;2023-08-24T13:43:06;22.13;;;7.97;;
55216;SDS011;41086;46.736;15.666;2023-08-24T13:45:34;10.68;;;7.00;;
55216;SDS011;41086;46.736;15.666;2023-08-24T13:48:01;11.68;;;7.32;;
55216;SDS011;41086;46.736;15.666;2023-08-24T13:50:29;8.38;;;6.78;;
55216;SDS011;41086;46.736;15.666;2023-08-24T13:52:55;9.75;;;7.07;;
55216;SDS011;41086;46.736;15.666;2023-08-24T13:55:22;8.18;;;6.25;;
55216;SDS011;41086;46.736;15.666;2023-08-24T13:57:49;12.18;;;7.45;;
55216;SDS011;41086;46.736;15.666;2023-08-24T14:00:16;13.52;;;7.38;;
55216;SDS011;41086;46.736;15.666;2023-08-24T14:02:43;9.45;;;7.20;;
55216;SDS011;41086;46.736;15.666;2023-08-24T14:05:11;11.32;;;8.38;;
55216;SDS011;41086;46.736;15.666;2023-08-24T14:07:39;15.80;;;7.95;;
55216;SDS011;41086;46.736;15.666;2023-08-24T14:10:06;11.57;;;7.75;;
55216;SDS011;41086;46.736;15.666;2023-08-24T14:12:34;13.05;;;7.70;;
55216;SDS011;41086;46.736;15.666;2023-08-24T14:15:01;9.57;;;6.75;;
55216;SDS011;41086;46.736;15.666;2023-08-24T14:17:28;9.88;;;8.15;;
55216;SDS011;41086;46.736;15.666;2023-08-24T14:19:55;9.10;;;8.07;;
55216;SDS011;41086;46.736;15.666;2023-08-24T14:22:22;9.85;;;8.23;;
55216;SDS011;41086;46.736;15.666;2023-08-24T14:24:49;11.55;;;8.77;;
55216;SDS011;41086;46.736;15.666;2023-08-24T14:27:16;9.93;;;8.07;;
55216;SDS011;41086;46.736;15.666;2023-08-24T14:29:42;10.07;;;8.20;;
55216;SDS011;41086;46.736;15.666;2023-08-24T14:32:09;12.98;;;8.55;;
55216;SDS011;41086;46.736;15.666;2023-08-24T14:34:36;9.63;;;8.07;;
55216;SDS011;41086;46.736;15.666;2023-08-24T14:37:03;12.35;;;8.30;;
55216;SDS011;41086;46.736;15.666;2023-08-24T14:39:29;10.93;;;8.88;;
55216;SDS011;41086;46.736;15.666;2023-08-24T14:41:56;9.82;;;8.63;;
55216;SDS011;41086;46.736;15.666;2023-08-24T14:44:23;10.07;;;9.00;;
55216;SDS011;41086;46.736;15.666;2023-08-24T14:46:50;9.57;;;8.32;;
55216;SDS011;41086;46.736;15.666;2023-08-24T14:49:18;12.50;;;8.63;;
55216;SDS011;41086;46.736;15.666;2023-08-24T14:51:46;9.35;;;8.35;;
55216;SDS011;41086;46.736;15.666;2023-08-24T14:54:13;9.60;;;8.15;;
55216;SDS011;41086;46.736;15.666;2023-08-24T14:56:41;13.98;;;8.30;;
55216;SDS011;41086;46.736;15.666;2023-08-24T14:59:08;12.50;;;8.10;;
55216;SDS011;41086;46.736;15.666;2023-08-24T15:01:35;9.40;;;8.30;;
55216;SDS011;41086;46.736;15.666;2023-08-24T15:04:02;10.68;;;8.18;;
55216;SDS011;41086;46.736;15.666;2023-08-24T15:06:29;9.95;;;8.70;;
55216;SDS011;41086;46.736;15.666;2023-08-24T15:08:55;9.27;;;8.05;;
55216;SDS011;41086;46.736;15.666;2023-08-24T15:11:22;10.85;;;9.18;;
55216;SDS011;41086;46.736;15.666;2023-08-24T15:13:49;13.13;;;8.90;;
55216;SDS011;41086;46.736;15.666;2023-08-24T15:16:16;12.77;;;8.18;;
55216;SDS011;41086;46.736;15.666;2023-08-24T15:18:42;11.80;;;8.98;;
55216;SDS011;41086;46.736;15.666;2023-08-24T15:21:10;12.55;;;8.27;;
55216;SDS011;41086;46.736;15.666;2023-08-24T15:23:37;10.88;;;8.52;;
55216;SDS011;41086;46.736;15.666;2023-08-24T15:26:03;10.52;;;8.20;;
55216;SDS011;41086;46.736;15.666;2023-08-24T15:28:37;16.40;;;8.85;;
55216;SDS011;41086;46.736;15.666;2023-08-24T15:31:24;9.38;;;8.38;;
55216;SDS011;41086;46.736;15.666;2023-08-24T15:33:51;9.52;;;7.95;;
55216;SDS011;41086;46.736;15.666;2023-08-24T15:36:17;12.02;;;8.98;;
55216;SDS011;41086;46.736;15.666;2023-08-24T15:38:44;11.02;;;8.20;;
55216;SDS011;41086;46.736;15.666;2023-08-24T15:41:11;10.65;;;8.50;;